Time;durP1;ratioP1;P1;durP2;ratioP2;P2;SDS_P1;SDS_P2;PMS_P1;PMS_P2;Temp;Humidity;BMP_temperature;BMP_pressure;BME280_temperature;BME280_humidity;BME280_pressure;Samples;Min_cycle;Max_cycle;Signal;HPM_P1;HPM_P2
2023/12/04 00:02:14;;;;;;;0.90;0.90;;;;;;;-1.65;92.53;99322.84;5093935;28;20093;-58
2023/12/04 00:04:41;;;;;;;0.80;0.80;;;;;;;-1.54;93.10;99319.91;5096294;28;20177;-61
2023/12/04 00:07:10;;;;;;;0.80;0.80;;;;;;;-1.59;91.62;99309.06;5101191;28;20509;-59
2023/12/04 00:09:37;;;;;;;0.80;0.80;;;;;;;-1.57;91.85;99303.66;5098461;28;20843;-58
2023/12/04 00:12:04;;;;;;;0.90;0.90;;;;;;;-1.46;90.85;99286.75;5096493;28;20128;-59
2023/12/04 00:14:31;;;;;;;0.85;0.85;;;;;;;-1.45;90.33;99288.38;5094883;28;20591;-59
2023/12/04 00:16:58;;;;;;;0.70;0.70;;;;;;;-1.58;91.38;99280.97;5098660;28;20068;-59
2023/12/04 00:19:25;;;;;;;0.80;0.80;;;;;;;-1.73;91.38;99289.50;5094533;28;20042;-60
2023/12/04 00:21:52;;;;;;;0.75;0.75;;;;;;;-1.64;92.73;99282.44;5096843;28;20050;-58
2023/12/04 00:24:21;;;;;;;0.70;0.70;;;;;;;-1.65;92.41;99285.22;5099608;28;20042;-58
2023/12/04 00:26:48;;;;;;;0.90;0.90;;;;;;;-1.75;92.09;99273.09;5096816;27;20043;-59
2023/12/04 00:29:15;;;;;;;0.70;0.70;;;;;;;-1.79;92.99;99265.69;5095676;28;20112;-59
2023/12/04 00:31:42;;;;;;;0.90;0.90;;;;;;;-2.02;94.84;99275.94;5089466;28;20040;-58
2023/12/04 00:34:09;;;;;;;0.82;0.82;;;;;;;-2.04;96.36;99270.06;5093818;28;20048;-58
2023/12/04 00:36:36;;;;;;;0.90;0.90;;;;;;;-2.27;98.11;99268.03;5099927;28;20135;-60
2023/12/04 00:39:03;;;;;;;0.70;0.70;;;;;;;-2.29;100.00;99266.53;5091789;28;20043;-57
2023/12/04 00:41:32;;;;;;;0.80;0.80;;;;;;;-2.24;100.00;99264.25;5088138;28;20044;-57
2023/12/04 00:43:59;;;;;;;0.80;0.80;;;;;;;-2.40;100.00;99260.59;5098693;28;20039;-58
2023/12/04 00:46:26;;;;;;;0.90;0.90;;;;;;;-2.44;100.00;99263.69;5095653;28;20051;-58
2023/12/04 00:48:53;;;;;;;0.95;0.95;;;;;;;-2.53;100.00;99259.38;5089862;28;20049;-60
2023/12/04 00:51:20;;;;;;;0.85;0.85;;;;;;;-2.55;100.00;99256.09;5092950;28;20130;-58
2023/12/04 00:53:47;;;;;;;0.73;0.73;;;;;;;-2.48;100.00;99257.09;5091868;27;20040;-58
2023/12/04 00:56:14;;;;;;;0.80;0.80;;;;;;;-2.47;100.00;99259.59;5096032;28;20051;-58
2023/12/04 00:58:42;;;;;;;0.70;0.70;;;;;;;-2.54;100.00;99263.00;5093488;28;20044;-58
2023/12/04 01:01:09;;;;;;;0.90;0.90;;;;;;;-2.53;100.00;99256.75;5100767;28;20039;-58
2023/12/04 01:03:36;;;;;;;0.90;0.90;;;;;;;-2.68;100.00;99262.59;5093174;28;20124;-59
2023/12/04 01:06:03;;;;;;;0.90;0.90;;;;;;;-2.65;100.00;99266.69;5096299;28;20040;-59
2023/12/04 01:08:32;;;;;;;0.93;0.93;;;;;;;-2.72;100.00;99260.44;5093179;28;20047;-58
2023/12/04 01:10:59;;;;;;;1.00;1.00;;;;;;;-2.69;100.00;99253.09;5099231;27;20051;-59
2023/12/04 01:13:26;;;;;;;0.73;0.73;;;;;;;-2.64;100.00;99255.25;5114638;27;20047;-58
2023/12/04 01:15:54;;;;;;;0.90;0.90;;;;;;;-2.49;100.00;99245.78;5096246;28;20449;-58
2023/12/04 01:18:21;;;;;;;0.93;0.93;;;;;;;-2.76;100.00;99243.38;5096200;28;20067;-58
2023/12/04 01:20:48;;;;;;;0.80;0.80;;;;;;;-2.89;100.00;99239.38;5094322;28;20067;-58
2023/12/04 01:23:16;;;;;;;0.80;0.80;;;;;;;-2.82;100.00;99235.16;5092774;28;20044;-58
2023/12/04 01:25:44;;;;;;;0.93;0.93;;;;;;;-2.91;100.00;99243.94;5094881;28;20043;-58
2023/12/04 01:28:11;;;;;;;1.00;1.00;;;;;;;-2.79;100.00;99241.88;5094639;27;20120;-59
2023/12/04 01:30:38;;;;;;;0.90;0.90;;;;;;;-2.82;100.00;99240.41;5091636;28;20055;-58
2023/12/04 01:33:08;;;;;;;1.00;1.00;;;;;;;-2.97;100.00;99228.00;5099328;28;20039;-58
2023/12/04 01:35:35;;;;;;;0.80;0.80;;;;;;;-2.75;100.00;99229.25;5088915;28;20043;-58
2023/12/04 01:38:02;;;;;;;1.00;1.00;;;;;;;-2.48;100.00;99231.69;5086484;28;20040;-59
2023/12/04 01:40:29;;;;;;;0.80;0.80;;;;;;;-2.54;100.00;99227.06;5090653;28;20039;-59
2023/12/04 01:42:56;;;;;;;0.80;0.80;;;;;;;-2.77;100.00;99232.06;5094514;27;20039;-58
2023/12/04 01:45:22;;;;;;;0.88;0.88;;;;;;;-2.90;100.00;99229.03;5093075;28;20039;-58
2023/12/04 01:47:49;;;;;;;0.88;0.88;;;;;;;-2.88;100.00;99224.44;5099852;27;20135;-58
2023/12/04 01:50:18;;;;;;;1.00;1.00;;;;;;;-2.89;100.00;99223.63;5087550;28;20036;-58
2023/12/04 01:52:45;;;;;;;1.00;1.00;;;;;;;-2.93;100.00;99227.53;5088775;28;20466;-58
2023/12/04 01:55:12;;;;;;;1.00;1.00;;;;;;;-3.03;100.00;99225.03;5086223;28;20103;-58
2023/12/04 01:57:39;;;;;;;0.82;0.82;;;;;;;-3.10;100.00;99220.56;5098105;28;21028;-58
2023/12/04 02:00:11;;;;;;;0.98;0.98;;;;;;;-3.18;100.00;99212.66;5104345;27;20046;-58
2023/12/04 02:02:38;;;;;;;0.90;0.90;;;;;;;-3.17;100.00;99214.28;5096594;27;20671;-58
2023/12/04 02:05:06;;;;;;;0.93;0.93;;;;;;;-3.18;100.00;99216.09;5087132;27;20482;-58
2023/12/04 02:07:36;;;;;;;1.10;1.10;;;;;;;-3.09;100.00;99211.72;5098019;28;20497;-58
2023/12/04 02:10:04;;;;;;;1.05;1.05;;;;;;;-3.19;100.00;99206.59;5094578;28;20048;-58
2023/12/04 02:12:31;;;;;;;0.90;0.90;;;;;;;-3.23;100.00;99205.25;5092500;28;20052;-58
2023/12/04 02:14:58;;;;;;;1.10;1.10;;;;;;;-3.33;100.00;99205.34;5096231;28;20043;-58
2023/12/04 02:17:26;;;;;;;0.85;0.85;;;;;;;-3.34;100.00;99198.47;5092797;27;20055;-58
2023/12/04 02:19:53;;;;;;;0.90;0.90;;;;;;;-3.21;100.00;99197.22;5091257;28;21224;-58
2023/12/04 02:22:20;;;;;;;1.00;1.00;;;;;;;-3.26;100.00;99200.31;5097946;28;20039;-58
2023/12/04 02:24:49;;;;;;;1.00;1.00;;;;;;;-3.41;100.00;99184.31;5093212;28;20670;-58
2023/12/04 02:27:18;;;;;;;0.90;0.90;;;;;;;-3.42;100.00;99190.56;5097305;28;20051;-59
2023/12/04 02:29:48;;;;;;;1.10;1.10;;;;;;;-3.28;100.00;99179.50;5092581;28;20513;-60
2023/12/04 02:32:16;;;;;;;0.90;0.90;;;;;;;-3.22;100.00;99179.84;5093210;28;20051;-57
2023/12/04 02:34:43;;;;;;;1.08;1.08;;;;;;;-3.22;100.00;99174.59;5089811;28;20055;-57
2023/12/04 02:37:10;;;;;;;0.90;0.90;;;;;;;-3.23;100.00;99168.53;5095312;28;20040;-57
2023/12/04 02:39:37;;;;;;;1.00;1.00;;;;;;;-3.16;100.00;99169.56;5088771;27;20050;-57
2023/12/04 02:42:06;;;;;;;0.98;0.98;;;;;;;-3.13;100.00;99153.50;5096036;27;20046;-57
2023/12/04 02:44:33;;;;;;;0.80;0.80;;;;;;;-3.13;100.00;99157.94;5083363;28;20147;-57
2023/12/04 02:47:00;;;;;;;0.90;0.90;;;;;;;-3.12;100.00;99159.56;5097972;27;20039;-59
2023/12/04 02:49:27;;;;;;;1.00;1.00;;;;;;;-3.28;100.00;99153.28;5094907;27;20044;-60
2023/12/04 02:51:54;;;;;;;1.02;1.02;;;;;;;-3.22;100.00;99153.63;5099011;27;20050;-59
2023/12/04 02:54:21;;;;;;;0.95;0.95;;;;;;;-3.18;100.00;99149.72;5093711;28;20054;-60
2023/12/04 02:56:48;;;;;;;1.05;1.05;;;;;;;-3.14;100.00;99137.97;5100530;27;20050;-59
2023/12/04 02:59:17;;;;;;;1.02;1.02;;;;;;;-3.26;100.00;99137.41;5090206;28;20052;-61
2023/12/04 03:01:44;;;;;;;1.05;1.05;;;;;;;-3.26;100.00;99127.72;5093451;28;20040;-58
2023/12/04 03:04:11;;;;;;;0.90;0.90;;;;;;;-3.21;100.00;99131.69;5093669;28;20855;-58
2023/12/04 03:06:38;;;;;;;0.90;0.90;;;;;;;-3.22;100.00;99127.41;5093086;28;20039;-59
2023/12/04 03:09:05;;;;;;;0.80;0.80;;;;;;;-3.22;100.00;99130.88;5091291;28;20070;-58
2023/12/04 03:11:32;;;;;;;0.90;0.90;;;;;;;-3.33;100.00;99120.66;5102148;28;20051;-58
2023/12/04 03:14:01;;;;;;;0.98;0.98;;;;;;;-3.17;100.00;99119.91;5095750;28;20047;-58
2023/12/04 03:16:29;;;;;;;0.95;0.95;;;;;;;-3.42;100.00;99119.81;5094943;28;20044;-58
2023/12/04 03:18:56;;;;;;;0.98;0.98;;;;;;;-3.38;100.00;99118.50;5091542;28;20181;-58
2023/12/04 03:21:23;;;;;;;0.93;0.93;;;;;;;-3.29;100.00;99116.75;5089441;28;20068;-58
2023/12/04 03:23:50;;;;;;;0.80;0.80;;;;;;;-3.19;100.00;99108.78;5097397;28;20064;-59
2023/12/04 03:26:17;;;;;;;0.95;0.95;;;;;;;-3.14;100.00;99109.94;5092965;28;20127;-58
2023/12/04 03:28:44;;;;;;;0.90;0.90;;;;;;;-3.27;100.00;99109.53;5095191;28;20040;-58
2023/12/04 03:31:11;;;;;;;0.90;0.90;;;;;;;-3.31;100.00;99109.03;5093940;28;20040;-58
2023/12/04 03:33:39;;;;;;;0.90;0.90;;;;;;;-3.43;100.00;99099.78;5083594;28;20143;-58
2023/12/04 03:36:07;;;;;;;0.90;0.90;;;;;;;-3.47;100.00;99098.44;5092943;28;20477;-60
2023/12/04 03:38:34;;;;;;;1.00;1.00;;;;;;;-3.42;100.00;99098.00;5092526;28;20117;-58
2023/12/04 03:41:01;;;;;;;0.90;0.90;;;;;;;-3.39;100.00;99098.50;5085230;28;20675;-59
2023/12/04 03:43:28;;;;;;;1.00;1.00;;;;;;;-3.23;100.00;99092.53;5085909;28;20081;-58
2023/12/04 03:45:55;;;;;;;1.00;1.00;;;;;;;-3.33;100.00;99086.56;5086381;28;20128;-58
2023/12/04 03:48:22;;;;;;;1.02;1.02;;;;;;;-3.46;100.00;99092.25;5099830;28;20052;-58
2023/12/04 03:50:51;;;;;;;1.05;1.05;;;;;;;-3.43;100.00;99097.16;5086934;28;20078;-58
2023/12/04 03:53:18;;;;;;;0.90;0.90;;;;;;;-3.42;100.00;99101.47;5111916;27;20138;-58
2023/12/04 03:55:45;;;;;;;0.93;0.93;;;;;;;-3.33;100.00;99095.25;5098683;27;20044;-58
2023/12/04 03:58:12;;;;;;;1.00;1.00;;;;;;;-3.28;100.00;99082.50;5098103;28;20585;-58
2023/12/04 04:00:40;;;;;;;0.90;0.90;;;;;;;-3.34;100.00;99087.56;5095768;27;20573;-58
2023/12/04 04:03:08;;;;;;;0.95;0.95;;;;;;;-3.31;100.00;99079.38;5084511;28;20050;-58
2023/12/04 04:05:35;;;;;;;1.00;1.00;;;;;;;-3.27;100.00;99086.78;5087177;27;20044;-59
2023/12/04 04:08:07;;;;;;;0.90;0.90;;;;;;;-3.30;100.00;99084.44;5083785;27;20043;-58
2023/12/04 04:10:34;;;;;;;0.98;0.98;;;;;;;-3.35;100.00;99081.47;5082918;27;20035;-58
2023/12/04 04:13:01;;;;;;;1.00;1.00;;;;;;;-3.05;100.00;99071.44;5092288;28;20047;-58
2023/12/04 04:15:28;;;;;;;1.00;1.00;;;;;;;-3.21;100.00;99069.59;5080798;28;20040;-58
2023/12/04 04:17:55;;;;;;;1.05;1.05;;;;;;;-3.03;100.00;99069.50;5091485;27;20040;-61
2023/12/04 04:20:22;;;;;;;1.00;1.00;;;;;;;-3.11;100.00;99069.47;5085733;28;20063;-58
2023/12/04 04:22:50;;;;;;;0.90;0.90;;;;;;;-3.06;100.00;99064.56;5091361;28;20420;-58
2023/12/04 04:25:18;;;;;;;0.93;0.93;;;;;;;-3.56;100.00;99066.16;5102312;27;20120;-58
2023/12/04 04:27:45;;;;;;;0.90;0.90;;;;;;;-3.28;100.00;99058.09;5093991;28;20040;-58
2023/12/04 04:30:13;;;;;;;1.00;1.00;;;;;;;-3.35;100.00;99063.13;5098481;28;20529;-59
2023/12/04 04:32:40;;;;;;;1.10;1.10;;;;;;;-3.38;100.00;99063.44;5103141;27;20687;-59
2023/12/04 04:35:08;;;;;;;1.05;1.05;;;;;;;-3.19;100.00;99058.97;5099672;28;20833;-58
2023/12/04 04:37:35;;;;;;;1.02;1.02;;;;;;;-3.26;100.00;99058.75;5095903;28;20125;-59
2023/12/04 04:40:02;;;;;;;1.00;1.00;;;;;;;-3.49;100.00;99053.25;5093530;28;20054;-59
2023/12/04 04:42:31;;;;;;;1.00;1.00;;;;;;;-3.17;100.00;99052.59;5092232;28;20544;-59
2023/12/04 04:44:58;;;;;;;0.88;0.88;;;;;;;-3.23;100.00;99055.00;5103572;28;20075;-58
2023/12/04 04:47:25;;;;;;;1.00;1.00;;;;;;;-3.19;100.00;99046.66;5099347;28;20559;-58
2023/12/04 04:49:52;;;;;;;0.90;0.90;;;;;;;-3.20;100.00;99037.16;5093845;27;20043;-58
2023/12/04 04:52:19;;;;;;;1.02;1.02;;;;;;;-3.38;100.00;99039.88;5093471;28;20054;-58
2023/12/04 04:54:46;;;;;;;0.95;0.95;;;;;;;-3.33;100.00;99029.72;5089684;28;20087;-59
2023/12/04 04:57:13;;;;;;;0.80;0.80;;;;;;;-3.35;100.00;99034.31;5098801;28;20406;-58
2023/12/04 04:59:42;;;;;;;0.95;0.95;;;;;;;-3.35;100.00;99034.31;5093963;27;20047;-58
2023/12/04 05:02:09;;;;;;;1.00;1.00;;;;;;;-3.36;100.00;99027.44;5095618;28;20043;-58
2023/12/04 05:04:36;;;;;;;0.88;0.88;;;;;;;-3.38;100.00;99033.81;5088274;28;20105;-58
2023/12/04 05:07:04;;;;;;;1.00;1.00;;;;;;;-3.34;100.00;99035.97;5099148;28;20120;-58
2023/12/04 05:09:31;;;;;;;0.90;0.90;;;;;;;-3.44;100.00;99035.28;5098316;28;20047;-58
2023/12/04 05:11:58;;;;;;;0.90;0.90;;;;;;;-3.39;100.00;99027.75;5092651;28;20481;-59
2023/12/04 05:14:27;;;;;;;1.05;1.05;;;;;;;-3.40;100.00;99036.56;5092174;28;20135;-58
2023/12/04 05:16:55;;;;;;;0.90;0.90;;;;;;;-3.43;100.00;99034.28;5087587;28;20050;-59
2023/12/04 05:19:22;;;;;;;1.00;1.00;;;;;;;-3.39;100.00;99024.31;5093961;28;20040;-58
2023/12/04 05:21:49;;;;;;;0.88;0.88;;;;;;;-3.43;100.00;99025.59;5092901;28;20458;-58
2023/12/04 05:24:16;;;;;;;0.98;0.98;;;;;;;-3.34;100.00;99019.44;5097146;28;20150;-60
2023/12/04 05:26:44;;;;;;;1.00;1.00;;;;;;;-3.41;100.00;99021.84;5090048;28;20051;-59
2023/12/04 05:29:11;;;;;;;1.08;1.08;;;;;;;-3.30;100.00;99026.78;5101673;28;20050;-59
2023/12/04 05:31:38;;;;;;;1.10;1.10;;;;;;;-3.15;100.00;99018.31;5096090;28;20513;-60
2023/12/04 05:34:06;;;;;;;0.80;0.80;;;;;;;-3.15;100.00;99020.94;5088920;28;20051;-60
2023/12/04 05:36:33;;;;;;;0.90;0.90;;;;;;;-3.28;100.00;99019.59;5099479;27;20055;-60
2023/12/04 05:39:00;;;;;;;0.90;0.90;;;;;;;-3.18;100.00;99008.16;5097974;28;20040;-60
2023/12/04 05:41:27;;;;;;;0.90;0.90;;;;;;;-3.16;100.00;99007.03;5099306;28;20513;-60
2023/12/04 05:43:54;;;;;;;1.00;1.00;;;;;;;-3.10;100.00;99006.38;5096295;28;20050;-58
2023/12/04 05:46:21;;;;;;;1.00;1.00;;;;;;;-3.21;100.00;99006.69;5091119;28;20504;-58
2023/12/04 05:48:48;;;;;;;1.00;1.00;;;;;;;-3.25;100.00;99002.72;5095356;27;20145;-58
2023/12/04 05:51:17;;;;;;;1.00;1.00;;;;;;;-3.20;100.00;99004.88;5097582;27;20135;-58
2023/12/04 05:53:44;;;;;;;0.90;0.90;;;;;;;-3.22;100.00;98993.72;5093874;27;20490;-59
2023/12/04 05:56:11;;;;;;;1.00;1.00;;;;;;;-3.22;100.00;98985.84;5092146;28;20047;-59
2023/12/04 05:58:38;;;;;;;0.93;0.93;;;;;;;-3.09;100.00;98975.75;5097798;28;20062;-59
2023/12/04 06:01:07;;;;;;;0.93;0.93;;;;;;;-3.09;100.00;98970.50;5095174;28;20092;-59
2023/12/04 06:03:34;;;;;;;0.88;0.88;;;;;;;-3.09;100.00;98973.13;5096666;28;20139;-59
2023/12/04 06:06:01;;;;;;;1.00;1.00;;;;;;;-3.24;100.00;98978.16;5095102;27;20053;-59
2023/12/04 06:08:30;;;;;;;1.10;1.10;;;;;;;-3.21;100.00;98971.78;5096449;27;20051;-58
2023/12/04 06:10:57;;;;;;;0.90;0.90;;;;;;;-3.14;100.00;98978.03;5094187;28;20127;-58
2023/12/04 06:13:24;;;;;;;0.90;0.90;;;;;;;-3.11;100.00;98977.72;5095747;28;20035;-58
2023/12/04 06:15:52;;;;;;;1.00;1.00;;;;;;;-3.17;100.00;98973.09;5092430;27;20048;-59
2023/12/04 06:18:20;;;;;;;1.02;1.02;;;;;;;-2.98;100.00;98964.94;5098109;27;20048;-59
2023/12/04 06:20:47;;;;;;;0.90;0.90;;;;;;;-3.03;100.00;98952.31;5095620;28;20565;-59
2023/12/04 06:23:16;;;;;;;1.00;1.00;;;;;;;-2.98;100.00;98945.75;5094857;28;20051;-58
2023/12/04 06:25:45;;;;;;;1.00;1.00;;;;;;;-2.86;100.00;98937.41;5090193;28;20067;-58
2023/12/04 06:28:12;;;;;;;1.00;1.00;;;;;;;-2.93;100.00;98939.03;5094124;28;20497;-59
2023/12/04 06:30:40;;;;;;;1.08;1.08;;;;;;;-2.86;100.00;98920.84;5090453;28;20125;-58
2023/12/04 06:33:08;;;;;;;1.00;1.00;;;;;;;-2.77;100.00;98912.00;5089186;28;20195;-58
2023/12/04 06:35:36;;;;;;;0.90;0.90;;;;;;;-3.03;100.00;98899.03;5095851;28;20146;-58
2023/12/04 06:38:06;;;;;;;0.80;0.80;;;;;;;-2.91;100.00;98902.19;5097867;28;20043;-59
2023/12/04 06:40:34;;;;;;;0.98;0.98;;;;;;;-2.74;100.00;98900.38;5095364;28;20519;-58
2023/12/04 06:43:03;;;;;;;1.00;1.00;;;;;;;-2.90;100.00;98904.63;5111269;27;20048;-59
2023/12/04 06:45:32;;;;;;;0.90;0.90;;;;;;;-2.61;100.00;98901.50;5095096;27;20047;-59
2023/12/04 06:47:59;;;;;;;0.90;0.90;;;;;;;-2.64;100.00;98901.84;5093197;28;20044;-59
2023/12/04 06:50:26;;;;;;;0.90;0.90;;;;;;;-2.68;100.00;98904.94;5093183;28;20334;-58
2023/12/04 06:52:56;;;;;;;0.70;0.70;;;;;;;-2.82;100.00;98904.63;5098858;28;20112;-59
2023/12/04 06:55:27;;;;;;;1.00;1.00;;;;;;;-2.83;100.00;98889.88;5098641;28;20100;-59
2023/12/04 06:57:54;;;;;;;0.87;0.87;;;;;;;-2.82;100.00;98902.00;5087910;28;20036;-59
2023/12/04 07:00:23;;;;;;;0.75;0.75;;;;;;;-2.83;100.00;98902.97;5092402;28;20865;-59
2023/12/04 07:02:50;;;;;;;0.90;0.90;;;;;;;-2.79;100.00;98894.81;5092962;28;20096;-59
2023/12/04 07:05:18;;;;;;;0.93;0.93;;;;;;;-2.83;100.00;98896.91;5091686;28;20047;-59
2023/12/04 07:07:45;;;;;;;1.00;1.00;;;;;;;-2.87;100.00;98891.19;5086839;28;20726;-59
2023/12/04 07:10:14;;;;;;;0.90;0.90;;;;;;;-2.96;100.00;98886.94;5090457;28;20133;-59
2023/12/04 07:12:41;;;;;;;0.90;0.90;;;;;;;-2.78;100.00;98883.31;5093118;28;20044;-59
2023/12/04 07:15:09;;;;;;;1.08;1.08;;;;;;;-2.95;100.00;98890.38;5099062;28;20036;-59
2023/12/04 07:17:38;;;;;;;1.00;1.00;;;;;;;-2.77;100.00;98890.19;5089675;28;20138;-59
2023/12/04 07:20:06;;;;;;;1.10;1.10;;;;;;;-2.92;100.00;98897.91;5089451;28;20048;-59
2023/12/04 07:22:33;;;;;;;1.00;1.00;;;;;;;-2.94;100.00;98884.97;5097746;28;20650;-59
2023/12/04 07:25:01;;;;;;;1.00;1.00;;;;;;;-2.77;100.00;98883.16;5089167;28;20597;-59
2023/12/04 07:27:29;;;;;;;0.95;0.95;;;;;;;-2.62;100.00;98881.50;5092871;28;20051;-59
2023/12/04 07:29:56;;;;;;;0.85;0.85;;;;;;;-2.78;100.00;98893.81;5095208;28;20071;-59
2023/12/04 07:32:23;;;;;;;0.85;0.85;;;;;;;-2.72;100.00;98888.72;5094975;28;20073;-59
2023/12/04 07:34:51;;;;;;;0.68;0.68;;;;;;;-2.67;100.00;98890.81;5095247;27;20445;-59
2023/12/04 07:37:18;;;;;;;0.82;0.82;;;;;;;-2.53;100.00;98877.03;5098781;28;20433;-59
2023/12/04 07:39:46;;;;;;;0.80;0.80;;;;;;;-2.46;100.00;98871.94;5088462;28;20040;-59
2023/12/04 07:42:13;;;;;;;0.82;0.82;;;;;;;-2.38;100.00;98879.81;5094328;28;20490;-59
2023/12/04 07:44:40;;;;;;;0.90;0.90;;;;;;;-2.31;100.00;98874.72;5096074;28;20048;-63
2023/12/04 07:47:07;;;;;;;0.80;0.80;;;;;;;-2.36;100.00;98866.53;5099569;28;20126;-59
2023/12/04 07:49:34;;;;;;;1.00;1.00;;;;;;;-2.30;100.00;98860.59;5090557;27;20128;-59
2023/12/04 07:52:03;;;;;;;0.73;0.73;;;;;;;-2.25;100.00;98858.28;5109891;27;20055;-59
2023/12/04 07:54:31;;;;;;;1.00;1.00;;;;;;;-2.15;100.00;98852.81;5092415;27;20052;-59
2023/12/04 07:56:58;;;;;;;0.90;0.90;;;;;;;-2.26;100.00;98851.41;5092969;28;20509;-59
2023/12/04 07:59:25;;;;;;;0.70;0.70;;;;;;;-2.17;100.00;98845.94;5088833;28;20678;-59
2023/12/04 08:01:52;;;;;;;0.80;0.80;;;;;;;-2.16;100.00;98844.13;5096575;28;20045;-59
2023/12/04 08:04:19;;;;;;;0.80;0.80;;;;;;;-2.18;99.59;98843.47;5090619;28;20135;-58
2023/12/04 08:06:46;;;;;;;0.98;0.98;;;;;;;-2.03;99.24;98852.28;5090472;28;20086;-59
2023/12/04 08:09:14;;;;;;;0.93;0.93;;;;;;;-1.89;97.53;98847.31;5094474;28;20094;-58
2023/12/04 08:11:41;;;;;;;0.80;0.80;;;;;;;-1.74;97.09;98841.16;5110433;27;20055;-59
2023/12/04 08:14:09;;;;;;;0.82;0.82;;;;;;;-1.61;96.73;98848.47;5096161;28;20048;-59
2023/12/04 08:16:36;;;;;;;0.75;0.75;;;;;;;-1.61;96.57;98848.47;5094642;28;20047;-58
2023/12/04 08:19:03;;;;;;;0.85;0.85;;;;;;;-1.73;96.05;98847.22;5095641;27;20171;-59
2023/12/04 08:21:30;;;;;;;0.90;0.90;;;;;;;-1.71;96.41;98845.25;5093071;28;20123;-58
2023/12/04 08:23:57;;;;;;;0.80;0.80;;;;;;;-1.86;95.15;98832.00;5091039;28;20059;-59
2023/12/04 08:26:25;;;;;;;0.80;0.80;;;;;;;-1.53;100.00;98837.88;5095116;28;20067;-59
2023/12/04 08:28:52;;;;;;;0.90;0.90;;;;;;;-1.89;97.90;98842.06;5094550;28;20699;-59
2023/12/04 08:31:19;;;;;;;0.90;0.90;;;;;;;-1.78;97.36;98831.16;5094287;28;20071;-58
2023/12/04 08:33:46;;;;;;;0.85;0.85;;;;;;;-1.74;100.00;98838.50;5090579;28;20100;-59
2023/12/04 08:36:13;;;;;;;0.73;0.73;;;;;;;-1.80;97.50;98831.34;5098901;28;20383;-59
2023/12/04 08:38:40;;;;;;;0.80;0.80;;;;;;;-1.70;100.00;98838.16;5092794;28;20056;-59
2023/12/04 08:41:08;;;;;;;1.00;1.00;;;;;;;-1.69;97.53;98832.75;5095440;28;20044;-59
2023/12/04 08:43:36;;;;;;;0.80;0.80;;;;;;;-1.74;97.05;98820.13;5092283;28;20040;-59
2023/12/04 08:46:04;;;;;;;0.70;0.70;;;;;;;-1.88;95.85;98822.66;5100959;28;20043;-59
2023/12/04 08:48:31;;;;;;;0.90;0.90;;;;;;;-1.79;96.01;98811.13;5100765;28;20473;-58
2023/12/04 08:50:58;;;;;;;0.90;0.90;;;;;;;-1.84;96.13;98806.38;5111507;27;20755;-59
2023/12/04 08:53:24;;;;;;;0.65;0.65;;;;;;;-2.00;95.46;98803.84;5095736;28;20537;-59
2023/12/04 08:55:52;;;;;;;0.85;0.85;;;;;;;-1.94;98.24;98807.59;5091208;28;20048;-59
2023/12/04 08:58:19;;;;;;;0.90;0.90;;;;;;;-1.88;95.61;98804.28;5097620;28;20052;-59
2023/12/04 09:00:48;;;;;;;0.90;0.90;;;;;;;-1.88;94.56;98810.34;5092041;28;20036;-59
2023/12/04 09:03:16;;;;;;;0.80;0.80;;;;;;;-1.88;93.98;98809.53;5095740;28;20130;-59
2023/12/04 09:05:44;;;;;;;0.90;0.90;;;;;;;-1.76;96.52;98821.28;5095078;28;20135;-59
2023/12/04 09:08:12;;;;;;;0.73;0.73;;;;;;;-1.82;95.17;98814.94;5099448;28;20510;-61
2023/12/04 09:10:40;;;;;;;0.77;0.77;;;;;;;-1.78;95.29;98824.06;5093104;28;20078;-58
2023/12/04 09:13:07;;;;;;;0.70;0.70;;;;;;;-2.04;94.22;98813.88;5090950;28;20460;-58
2023/12/04 09:15:34;;;;;;;0.73;0.73;;;;;;;-1.89;95.69;98813.97;5098813;28;20132;-58
2023/12/04 09:18:02;;;;;;;0.80;0.80;;;;;;;-1.89;97.25;98815.78;5096670;28;20069;-59
2023/12/04 09:20:29;;;;;;;1.00;1.00;;;;;;;-2.05;95.76;98814.84;5093886;27;20039;-58
2023/12/04 09:22:56;;;;;;;0.95;0.95;;;;;;;-1.79;99.11;98817.19;5094200;28;20044;-57
2023/12/04 09:25:23;;;;;;;0.90;0.90;;;;;;;-1.82;98.79;98807.03;5096173;28;20079;-58
2023/12/04 09:27:50;;;;;;;0.90;0.90;;;;;;;-1.89;95.89;98806.09;5095412;28;20116;-58
2023/12/04 09:30:17;;;;;;;0.90;0.90;;;;;;;-1.80;99.35;98805.06;5089585;28;20109;-58
2023/12/04 09:32:44;;;;;;;0.90;0.90;;;;;;;-1.89;95.60;98794.78;5095064;28;20050;-58
2023/12/04 09:35:13;;;;;;;0.80;0.80;;;;;;;-1.71;97.14;98797.94;5097633;28;20096;-58
2023/12/04 09:37:40;;;;;;;0.80;0.80;;;;;;;-1.67;95.75;98796.59;5097998;28;20431;-58
2023/12/04 09:40:09;;;;;;;0.90;0.90;;;;;;;-1.73;98.75;98794.66;5097168;28;20524;-58
2023/12/04 09:42:36;;;;;;;0.90;0.90;;;;;;;-1.58;95.29;98792.09;5092930;28;20066;-60
2023/12/04 09:45:03;;;;;;;0.90;0.90;;;;;;;-1.72;95.83;98793.69;5089790;28;20044;-60
2023/12/04 09:47:30;;;;;;;0.90;0.90;;;;;;;-1.70;94.30;98788.25;5091019;28;20044;-59
2023/12/04 09:49:57;;;;;;;0.90;0.90;;;;;;;-1.69;94.33;98788.06;5094325;28;20112;-59
2023/12/04 09:52:26;;;;;;;0.90;0.90;;;;;;;-1.75;95.68;98786.13;5092926;28;20050;-59
2023/12/04 09:54:53;;;;;;;0.90;0.90;;;;;;;-1.58;100.00;98776.34;5087337;28;20050;-59
2023/12/04 09:57:20;;;;;;;0.77;0.77;;;;;;;-1.47;95.38;98768.06;5087558;28;20051;-59
2023/12/04 09:59:47;;;;;;;0.90;0.90;;;;;;;-1.25;93.61;98771.63;5095920;28;20051;-59
2023/12/04 10:02:17;;;;;;;0.90;0.90;;;;;;;-1.30;93.51;98773.97;5095265;28;20058;-59
2023/12/04 10:04:45;;;;;;;0.73;0.73;;;;;;;-1.32;93.29;98765.47;5092865;28;20052;-59
2023/12/04 10:07:12;;;;;;;0.90;0.90;;;;;;;-1.27;94.67;98763.13;5091656;28;20039;-59
2023/12/04 10:09:41;;;;;;;1.00;1.00;;;;;;;-1.39;96.46;98759.28;5087048;27;20078;-59
2023/12/04 10:12:08;;;;;;;0.80;0.80;;;;;;;-1.62;97.40;98756.63;5091835;28;20792;-59
2023/12/04 10:14:35;;;;;;;0.90;0.90;;;;;;;-1.36;97.31;98756.28;5088079;28;20167;-59
2023/12/04 10:17:17;;;;;;;0.82;0.82;;;;;;;-1.77;97.13;98746.09;5093585;28;20044;-59
2023/12/04 10:19:44;;;;;;;0.90;0.90;;;;;;;-1.63;98.35;98739.25;5093301;28;20535;-59
2023/12/04 10:22:13;;;;;;;0.80;0.80;;;;;;;-1.53;97.26;98729.31;5085029;28;20752;-59
2023/12/04 10:24:42;;;;;;;0.80;0.80;;;;;;;-1.12;96.76;98721.06;5094900;28;20035;-59
2023/12/04 10:27:11;;;;;;;0.80;0.80;;;;;;;-1.09;96.48;98713.63;5094095;28;20039;-59
2023/12/04 10:29:43;;;;;;;0.75;0.75;;;;;;;-1.20;96.28;98710.63;5085137;28;20131;-59
2023/12/04 10:32:10;;;;;;;0.90;0.90;;;;;;;-1.36;100.00;98709.78;5114186;27;20039;-59
2023/12/04 10:34:37;;;;;;;0.80;0.80;;;;;;;-1.33;100.00;98711.22;5091949;28;20420;-59
2023/12/04 10:37:04;;;;;;;0.70;0.70;;;;;;;-1.26;100.00;98708.72;5088387;28;20527;-59
2023/12/04 10:39:32;;;;;;;0.90;0.90;;;;;;;-1.85;100.00;98690.97;5091954;28;20110;-59
2023/12/04 10:42:03;;;;;;;1.00;1.00;;;;;;;-1.92;100.00;98684.78;5087800;28;20456;-59
2023/12/04 10:44:31;;;;;;;0.90;0.90;;;;;;;-1.77;100.00;98681.22;5084347;28;20432;-59
2023/12/04 10:46:59;;;;;;;0.88;0.88;;;;;;;-1.60;100.00;98668.78;5091158;28;20500;-59
2023/12/04 10:49:27;;;;;;;0.90;0.90;;;;;;;-1.31;100.00;98659.28;5087373;28;20040;-59
2023/12/04 10:51:56;;;;;;;0.70;0.70;;;;;;;-1.43;100.00;98652.84;5093929;28;20158;-59
2023/12/04 10:54:23;;;;;;;0.70;0.70;;;;;;;-1.52;100.00;98650.28;5090005;28;20058;-59
2023/12/04 10:56:50;;;;;;;0.80;0.80;;;;;;;-1.20;100.00;98640.44;5087445;28;20150;-60
2023/12/04 10:59:22;;;;;;;0.85;0.85;;;;;;;-1.19;100.00;98628.91;5096268;28;20051;-59
2023/12/04 11:01:49;;;;;;;0.60;0.60;;;;;;;-1.14;100.00;98625.75;5092182;28;20048;-60
2023/12/04 11:04:18;;;;;;;0.85;0.85;;;;;;;-1.08;100.00;98619.75;5093239;28;20059;-60
2023/12/04 11:06:45;;;;;;;0.80;0.80;;;;;;;-0.83;100.00;98622.91;5092120;28;20046;-59
2023/12/04 11:09:13;;;;;;;0.70;0.70;;;;;;;-0.90;100.00;98614.94;5091649;28;20039;-59
2023/12/04 11:11:42;;;;;;;0.65;0.65;;;;;;;-1.46;100.00;98616.41;5090259;28;20431;-59
2023/12/04 11:14:10;;;;;;;0.80;0.80;;;;;;;-1.28;100.00;98619.47;5089874;28;20035;-60
2023/12/04 11:16:41;;;;;;;0.70;0.70;;;;;;;-1.27;100.00;98607.97;5084124;28;20097;-60
2023/12/04 11:19:10;;;;;;;;;;;;;;;-1.21;100.00;98607.25;5089112;28;20135;-60
2023/12/04 11:21:38;;;;;;;0.80;0.80;;;;;;;-1.39;100.00;98602.34;5088698;28;20452;-60
2023/12/04 11:24:06;;;;;;;1.00;1.00;;;;;;;-1.61;100.00;98601.44;5094398;28;20039;-60
2023/12/04 11:26:33;;;;;;;0.73;0.73;;;;;;;-1.67;100.00;98589.00;5086670;28;20043;-58
2023/12/04 11:29:00;;;;;;;0.80;0.80;;;;;;;-1.40;100.00;98578.84;5089988;28;20058;-59